Time;durP1;ratioP1;P1;durP2;ratioP2;P2;SDS_P1;SDS_P2;PMS_P1;PMS_P2;Temp;Humidity;BMP_temperature;BMP_pressure;BME280_temperature;BME280_humidity;BME280_pressure;Samples;Min_cycle;Max_cycle;Signal;HPM_P1;HPM_P2
2023/07/12 00:01:39;;;;;;;6.10;2.07;;;24.90;60.00;;;;;;20765;6832;117183;-73
2023/07/12 00:04:03;;;;;;;2.17;1.80;;;24.60;60.80;;;;;;20755;6832;117140;-74
2023/07/12 00:06:32;;;;;;;2.57;2.10;;;24.20;61.00;;;;;;20737;6832;127877;-74
2023/07/12 00:08:59;;;;;;;2.40;2.20;;;23.70;61.70;;;;;;20745;6832;117208;-73
2023/07/12 00:11:24;;;;;;;1.90;1.80;;;23.70;61.60;;;;;;20755;6832;117689;-74
2023/07/12 00:13:50;;;;;;;2.30;2.20;;;23.50;61.90;;;;;;20772;6832;66886;-73
2023/07/12 00:16:25;;;;;;;2.15;2.05;;;23.30;62.40;;;;;;20528;6832;277417;-73
2023/07/12 00:18:51;;;;;;;3.90;2.10;;;23.40;61.50;;;;;;20750;6832;121077;-74
2023/07/12 00:21:17;;;;;;;2.60;2.40;;;23.50;60.80;;;;;;20537;6832;339924;-73
2023/07/12 00:23:43;;;;;;;3.20;2.47;;;23.50;60.80;;;;;;20753;6832;117385;-74
2023/07/12 00:26:35;;;;;;;2.27;2.10;;;23.30;62.70;;;;;;20757;6832;117578;-74
2023/07/12 00:29:02;;;;;;;2.03;1.93;;;23.10;63.10;;;;;;20738;6832;117080;-73
2023/07/12 00:31:27;;;;;;;2.60;2.40;;;23.10;63.10;;;;;;20532;6830;340658;-74
2023/07/12 00:33:55;;;;;;;2.87;2.67;;;23.80;62.60;;;;;;20551;6831;277471;-73
2023/07/12 00:36:21;;;;;;;2.53;2.33;;;23.80;62.60;;;;;;20527;6831;306637;-76
2023/07/12 00:38:46;;;;;;;3.13;2.77;;;24.20;61.50;;;;;;20522;6831;306574;-73
2023/07/12 00:41:31;;;;;;;2.40;2.22;;;24.50;60.70;;;;;;20746;6831;121606;-73
2023/07/12 00:44:00;;;;;;;3.17;2.10;;;24.30;61.00;;;;;;20716;6831;117672;-73
2023/07/12 00:46:32;;;;;;;3.47;2.45;;;23.90;61.70;;;;;;20509;6831;312009;-74
2023/07/12 00:48:58;;;;;;;3.40;2.62;;;24.00;61.80;;;;;;20516;6831;341918;-74
2023/07/12 00:51:27;;;;;;;2.70;2.45;;;24.20;60.10;;;;;;20537;6830;308013;-73
2023/07/12 00:53:57;;;;;;;2.60;2.40;;;24.50;60.00;;;;;;20742;6816;120968;-73
2023/07/12 00:56:23;;;;;;;3.67;2.27;;;24.20;60.30;;;;;;20793;6816;117568;-73
2023/07/12 00:58:48;;;;;;;2.87;2.60;;;23.90;61.30;;;;;;20589;6816;343843;-74
2023/07/12 01:01:14;;;;;;;3.92;2.90;;;24.00;62.00;;;;;;20597;6816;278462;-74
2023/07/12 01:03:39;;;;;;;4.07;2.80;;;24.30;60.80;;;;;;20804;6816;117081;-73
2023/07/12 01:06:05;;;;;;;2.77;2.50;;;24.10;61.10;;;;;;20802;6816;116807;-73
2023/07/12 01:08:30;;;;;;;3.22;2.78;;;23.90;62.00;;;;;;20561;6816;306522;-73
2023/07/12 01:10:56;;;;;;;2.77;2.57;;;24.00;61.50;;;;;;20799;6816;117216;-73
2023/07/12 01:13:21;;;;;;;3.70;3.17;;;24.00;61.50;;;;;;20588;6816;282025;-73
2023/07/12 01:15:47;;;;;;;3.00;2.70;;;24.10;60.20;;;;;;20592;6816;309418;-73
2023/07/12 01:18:13;;;;;;;3.57;3.10;;;24.70;58.50;;;;;;20593;6816;278358;-73
2023/07/12 01:20:39;;;;;;;3.87;3.20;;;24.70;58.50;;;;;;20781;6816;133461;-73
2023/07/12 01:23:04;;;;;;;4.17;2.83;;;24.60;59.30;;;;;;20798;6816;118150;-72
2023/07/12 01:25:43;;;;;;;3.47;3.10;;;24.30;60.30;;;;;;20595;6816;278488;-73
2023/07/12 01:28:08;;;;;;;3.37;3.10;;;24.50;59.90;;;;;;20306;6816;307907;-73
2023/07/12 01:30:35;;;;;;;3.05;2.80;;;24.70;59.70;;;;;;20787;6816;117443;-73
2023/07/12 01:33:03;;;;;;;4.00;3.37;;;24.50;59.70;;;;;;20580;6816;303321;-73
2023/07/12 01:35:27;;;;;;;3.87;2.97;;;24.50;59.70;;;;;;20796;6816;116902;-73
2023/07/12 01:37:53;;;;;;;3.50;3.13;;;24.10;61.00;;;;;;20810;6816;117739;-73
2023/07/12 01:40:19;;;;;;;4.63;3.30;;;24.10;61.00;;;;;;20813;6816;116962;-73
2023/07/12 01:42:44;;;;;;;3.05;2.83;;;23.90;61.80;;;;;;20797;6814;118111;-74
2023/07/12 01:45:10;;;;;;;5.10;2.90;;;23.70;62.40;;;;;;20752;6815;117877;-73
2023/07/12 01:47:36;;;;;;;3.50;3.20;;;23.60;63.10;;;;;;20594;6815;277918;-73
2023/07/12 01:50:01;;;;;;;4.77;3.57;;;23.80;62.40;;;;;;20798;6815;117443;-73
2023/07/12 01:52:27;;;;;;;5.50;3.30;;;23.90;62.50;;;;;;20567;6815;295676;-73
2023/07/12 01:54:53;;;;;;;4.10;3.03;;;24.00;61.30;;;;;;20802;6816;117227;-73
2023/07/12 01:57:19;;;;;;;4.40;3.37;;;24.00;61.20;;;;;;20797;6816;118408;-73
2023/07/12 01:59:45;;;;;;;5.20;3.60;;;24.00;60.60;;;;;;20589;6816;306949;-73
2023/07/12 02:02:11;;;;;;;3.27;3.00;;;24.00;60.60;;;;;;20788;6816;122766;-73
2023/07/12 02:04:36;;;;;;;5.25;3.33;;;24.00;60.90;;;;;;20569;6816;330729;-73
2023/07/12 02:07:03;;;;;;;5.40;3.37;;;24.20;59.70;;;;;;20754;6816;117184;-73
2023/07/12 02:09:27;;;;;;;4.50;3.37;;;24.20;60.40;;;;;;20768;6816;116952;-73
2023/07/12 02:11:53;;;;;;;5.55;3.25;;;24.00;61.20;;;;;;20510;6816;291824;-73
2023/07/12 02:14:18;;;;;;;3.93;3.37;;;24.20;60.40;;;;;;20543;6816;278116;-73
2023/07/12 02:16:44;;;;;;;4.10;3.13;;;24.50;59.90;;;;;;20743;6816;116972;-73
2023/07/12 02:19:10;;;;;;;4.50;3.20;;;24.40;60.20;;;;;;20545;6816;281149;-73
2023/07/12 02:21:35;;;;;;;4.27;3.53;;;24.50;59.60;;;;;;20540;6816;310638;-72
2023/07/12 02:24:02;;;;;;;4.67;3.40;;;24.80;59.20;;;;;;20571;6816;285943;-73
2023/07/12 02:26:26;;;;;;;4.87;3.30;;;24.90;59.10;;;;;;20569;6816;304817;-73
2023/07/12 02:28:52;;;;;;;4.10;3.40;;;25.00;58.50;;;;;;20593;6816;312032;-73
2023/07/12 02:31:17;;;;;;;3.50;3.17;;;25.10;58.60;;;;;;20591;6816;326397;-73
2023/07/12 02:33:44;;;;;;;6.05;3.10;;;24.80;59.00;;;;;;20802;6816;117360;-73
2023/07/12 02:36:09;;;;;;;3.10;2.73;;;24.80;59.00;;;;;;20800;6816;117029;-73
2023/07/12 02:38:35;;;;;;;6.53;3.30;;;24.40;60.00;;;;;;20572;6816;340964;-73
2023/07/12 02:41:00;;;;;;;3.93;2.70;;;24.40;59.80;;;;;;20812;6816;117245;-73
2023/07/12 02:43:26;;;;;;;3.42;3.12;;;24.30;60.30;;;;;;20593;6816;306353;-73
2023/07/12 02:45:52;;;;;;;3.80;3.30;;;24.30;59.50;;;;;;20805;6816;117411;-73
2023/07/12 02:48:18;;;;;;;4.90;3.00;;;24.30;59.50;;;;;;20808;6816;117414;-73
2023/07/12 02:50:43;;;;;;;3.50;3.00;;;24.00;60.30;;;;;;20792;6816;117501;-73
2023/07/12 02:53:16;;;;;;;3.00;2.80;;;23.80;60.90;;;;;;20806;6814;117240;-73
2023/07/12 02:55:41;;;;;;;3.60;3.30;;;23.60;61.40;;;;;;20589;6815;282927;-73
2023/07/12 02:58:07;;;;;;;4.70;3.35;;;24.20;58.50;;;;;;20583;6815;311438;-73
2023/07/12 03:00:33;;;;;;;3.57;3.27;;;24.20;58.60;;;;;;20785;6815;117482;-73
2023/07/12 03:03:00;;;;;;;4.97;3.20;;;24.10;59.00;;;;;;20803;6815;118092;-73
2023/07/12 03:05:26;;;;;;;3.53;3.17;;;23.80;59.80;;;;;;20798;6815;120985;-73
2023/07/12 03:07:52;;;;;;;3.83;3.27;;;23.60;60.30;;;;;;20805;6816;116922;-72
2023/07/12 03:10:17;;;;;;;3.50;3.20;;;23.50;61.00;;;;;;20592;6816;280058;-73
2023/07/12 03:12:43;;;;;;;4.80;3.47;;;23.70;59.80;;;;;;20568;6816;318864;-73
2023/07/12 03:15:09;;;;;;;3.90;3.10;;;24.00;60.20;;;;;;20805;6816;117194;-73
2023/07/12 03:17:36;;;;;;;4.10;3.30;;;24.20;58.70;;;;;;20588;6816;341940;-73
2023/07/12 03:20:01;;;;;;;5.23;3.07;;;24.20;59.30;;;;;;20804;6816;116868;-73
2023/07/12 03:22:27;;;;;;;3.93;3.17;;;24.10;59.10;;;;;;20794;6816;117163;-73
2023/07/12 03:24:53;;;;;;;4.15;3.50;;;24.00;59.30;;;;;;20599;6816;278869;-73
2023/07/12 03:27:19;;;;;;;4.20;3.50;;;23.90;59.20;;;;;;20598;6816;282828;-73
2023/07/12 03:29:45;;;;;;;4.60;3.00;;;24.10;59.10;;;;;;20804;6816;121292;-73
2023/07/12 03:32:11;;;;;;;5.80;3.47;;;24.10;59.10;;;;;;20590;6816;307910;-73
2023/07/12 03:34:36;;;;;;;4.17;3.53;;;24.20;58.80;;;;;;20791;6816;117730;-73
2023/07/12 03:37:02;;;;;;;3.70;3.37;;;24.00;59.30;;;;;;20591;6816;298146;-74
2023/07/12 03:39:27;;;;;;;3.60;3.07;;;24.00;58.90;;;;;;20801;6816;117010;-73
2023/07/12 03:41:54;;;;;;;4.55;3.20;;;23.90;59.50;;;;;;20803;6816;119520;-75
2023/07/12 03:44:20;;;;;;;4.00;3.40;;;23.70;60.30;;;;;;20589;6816;306863;-73
2023/07/12 03:46:45;;;;;;;7.12;3.50;;;23.70;60.00;;;;;;20790;6816;117122;-73
2023/07/12 03:49:11;;;;;;;4.60;3.27;;;23.50;61.00;;;;;;20809;6816;118064;-73
2023/07/12 03:51:37;;;;;;;4.37;3.53;;;23.50;61.00;;;;;;20594;6816;336106;-73
2023/07/12 03:54:03;;;;;;;4.00;3.60;;;23.70;60.90;;;;;;20606;6816;278715;-73
2023/07/12 03:56:28;;;;;;;5.60;3.50;;;24.00;59.80;;;;;;20780;6816;117349;-74
2023/07/12 03:58:54;;;;;;;3.77;3.03;;;23.70;61.50;;;;;;20816;6816;117247;-73
2023/07/12 04:01:20;;;;;;;6.15;3.80;;;23.70;60.90;;;;;;20596;6816;278677;-73
2023/07/12 04:03:46;;;;;;;3.50;3.20;;;23.80;60.40;;;;;;20808;6816;117035;-73
2023/07/12 04:06:12;;;;;;;4.23;3.10;;;23.80;60.30;;;;;;20807;6814;117011;-73
2023/07/12 04:08:38;;;;;;;3.75;3.45;;;23.40;61.20;;;;;;20793;6815;119544;-73
2023/07/12 04:11:04;;;;;;;5.37;3.20;;;23.40;61.20;;;;;;20800;6815;114433;-76
2023/07/12 04:13:30;;;;;;;3.40;3.10;;;23.30;61.70;;;;;;20589;6815;334433;-76
2023/07/12 04:15:55;;;;;;;5.37;3.50;;;23.50;60.90;;;;;;20805;6815;117668;-74
2023/07/12 04:18:21;;;;;;;8.45;3.10;;;23.60;61.10;;;;;;20757;6816;117013;-74
2023/07/12 04:20:47;;;;;;;5.63;3.27;;;23.60;61.80;;;;;;20776;6816;117282;-75
2023/07/12 04:23:13;;;;;;;6.20;3.30;;;23.50;61.60;;;;;;20799;6816;116886;-74
2023/07/12 04:25:38;;;;;;;5.57;3.00;;;23.50;61.90;;;;;;20801;6816;117470;-74
2023/07/12 04:28:04;;;;;;;6.03;3.70;;;23.50;62.00;;;;;;20599;6816;277671;-75
2023/07/12 04:30:30;;;;;;;4.33;3.50;;;24.40;58.10;;;;;;20570;6816;336411;-74
2023/07/12 04:32:56;;;;;;;3.70;3.10;;;24.40;58.00;;;;;;20803;6816;117208;-73
2023/07/12 04:35:21;;;;;;;3.50;3.20;;;24.40;58.30;;;;;;20809;6816;116998;-72
2023/07/12 04:37:47;;;;;;;4.78;3.30;;;24.20;58.80;;;;;;20589;6816;293652;-75
2023/07/12 04:40:12;;;;;;;3.97;3.00;;;24.40;57.60;;;;;;20799;6816;117165;-74
2023/07/12 04:42:38;;;;;;;9.37;4.10;;;24.40;58.10;;;;;;20570;6816;306844;-74
2023/07/12 04:45:04;;;;;;;5.18;3.72;;;24.60;57.00;;;;;;20533;6816;306572;-76
2023/07/12 04:47:29;;;;;;;4.77;3.33;;;25.00;56.30;;;;;;20583;6816;283708;-77
2023/07/12 04:49:55;;;;;;;5.47;4.05;;;25.20;55.70;;;;;;20593;6816;317325;-78
2023/07/12 04:52:20;;;;;;;4.60;3.50;;;25.30;55.20;;;;;;20803;6816;117676;-75
2023/07/12 04:54:46;;;;;;;4.20;3.63;;;25.10;56.10;;;;;;20578;6816;283261;-74
2023/07/12 04:57:14;;;;;;;3.63;3.23;;;24.80;56.80;;;;;;20811;6816;117036;-76
2023/07/12 04:59:39;;;;;;;5.90;3.33;;;24.80;56.80;;;;;;20819;6816;117336;-74
2023/07/12 05:02:06;;;;;;;3.20;2.90;;;24.30;58.40;;;;;;20817;6816;118197;-73
2023/07/12 05:04:32;;;;;;;5.60;3.42;;;24.50;57.40;;;;;;20591;6816;279890;-73
2023/07/12 05:06:59;;;;;;;4.93;3.87;;;24.50;57.40;;;;;;20563;6816;336360;-74
2023/07/12 05:09:25;;;;;;;6.93;3.80;;;24.80;56.50;;;;;;20556;6816;277034;-73
2023/07/12 05:11:50;;;;;;;4.90;3.60;;;25.20;55.80;;;;;;20775;6816;116885;-74
2023/07/12 05:14:15;;;;;;;4.70;3.80;;;25.00;56.40;;;;;;20537;6816;308767;-72
2023/07/12 05:16:41;;;;;;;4.80;3.70;;;25.00;55.90;;;;;;20565;6814;307008;-74
2023/07/12 05:19:07;;;;;;;7.80;4.00;;;25.20;55.60;;;;;;20577;6815;281481;-74
2023/07/12 05:21:32;;;;;;;4.62;3.75;;;25.40;55.10;;;;;;20576;6815;307805;-77
2023/07/12 05:23:58;;;;;;;6.23;3.80;;;25.50;54.50;;;;;;20580;6815;308576;-73
2023/07/12 05:26:24;;;;;;;5.60;3.65;;;25.70;54.20;;;;;;20581;6815;310881;-75
2023/07/12 05:28:50;;;;;;;4.90;4.03;;;25.60;54.20;;;;;;20762;6816;118982;-72
2023/07/12 05:31:15;;;;;;;6.05;3.17;;;25.40;55.10;;;;;;20753;6816;119797;-74
2023/07/12 05:33:41;;;;;;;6.32;4.00;;;25.00;56.20;;;;;;20561;6816;309401;-72
2023/07/12 05:36:06;;;;;;;5.20;4.10;;;25.00;55.70;;;;;;20558;6816;344695;-72
2023/07/12 05:38:32;;;;;;;5.67;3.80;;;25.20;55.30;;;;;;20586;6816;307119;-72
2023/07/12 05:40:57;;;;;;;7.25;4.10;;;25.40;54.80;;;;;;20606;6816;282473;-73
2023/07/12 05:43:23;;;;;;;5.80;3.90;;;25.60;54.60;;;;;;20582;6815;300793;-73
2023/07/12 05:45:49;;;;;;;3.53;3.23;;;25.60;54.40;;;;;;20799;6816;117351;-72
2023/07/12 05:48:14;;;;;;;8.00;3.57;;;25.40;56.00;;;;;;20806;6816;118108;-72
2023/07/12 05:50:43;;;;;;;6.27;3.87;;;25.00;56.40;;;;;;20570;6816;306861;-73
2023/07/12 05:53:08;;;;;;;7.73;4.10;;;25.10;56.30;;;;;;20589;6816;281681;-74
2023/07/12 05:55:35;;;;;;;4.03;3.62;;;25.20;56.10;;;;;;20804;6816;119681;-72
2023/07/12 05:58:00;;;;;;;7.50;4.10;;;25.20;56.10;;;;;;20581;6816;307865;-73
2023/07/12 06:00:27;;;;;;;10.37;4.10;;;25.20;55.70;;;;;;20584;6816;307408;-75
2023/07/12 06:02:53;;;;;;;7.47;4.10;;;25.50;55.60;;;;;;20578;6816;307049;-75
2023/07/12 06:05:18;;;;;;;10.00;4.10;;;25.70;55.30;;;;;;20825;6816;120870;-75
2023/07/12 06:07:44;;;;;;;7.10;4.37;;;25.60;56.00;;;;;;20608;6816;281940;-74
2023/07/12 06:10:11;;;;;;;7.35;4.37;;;25.60;56.00;;;;;;20607;6816;309507;-73
2023/07/12 06:12:36;;;;;;;7.47;4.05;;;25.90;55.50;;;;;;20586;6816;277587;-75
2023/07/12 06:15:02;;;;;;;9.53;4.17;;;26.10;54.90;;;;;;20824;6816;117565;-75
2023/07/12 06:17:29;;;;;;;6.95;4.00;;;26.00;55.30;;;;;;20593;6816;310308;-74
2023/07/12 06:19:54;;;;;;;6.73;3.97;;;26.00;55.30;;;;;;20802;6816;117996;-74
2023/07/12 06:22:20;;;;;;;6.80;3.70;;;25.90;57.20;;;;;;20801;6816;116009;-74
2023/07/12 06:24:45;;;;;;;7.75;4.28;;;25.80;57.10;;;;;;20571;6816;293033;-74
2023/07/12 06:27:13;;;;;;;5.67;3.73;;;26.30;56.50;;;;;;20853;6816;116328;-73
2023/07/12 06:29:37;;;;;;;8.17;4.70;;;26.20;56.40;;;;;;20655;6814;306169;-73
2023/07/12 06:32:03;;;;;;;7.33;4.40;;;26.60;54.90;;;;;;20650;6815;277831;-74
2023/07/12 06:34:30;;;;;;;6.97;4.60;;;27.20;53.80;;;;;;20655;6815;307234;-77
2023/07/12 06:36:56;;;;;;;5.60;4.37;;;27.80;52.90;;;;;;20485;6815;321101;-74
2023/07/12 06:39:22;;;;;;;4.40;4.00;;;28.40;51.40;;;;;;20883;6816;115904;-79
2023/07/12 06:41:48;;;;;;;7.97;4.27;;;28.50;52.20;;;;;;20838;6816;116711;-79
2023/07/12 06:44:13;;;;;;;4.40;4.00;;;28.30;52.70;;;;;;20804;6816;116976;-77
2023/07/12 06:46:39;;;;;;;6.57;4.70;;;28.10;53.80;;;;;;20587;6816;307408;-76
2023/07/12 06:49:05;;;;;;;5.20;4.70;;;28.30;53.50;;;;;;20806;6816;66734;-76
2023/07/12 06:51:31;;;;;;;5.10;4.40;;;28.30;52.80;;;;;;20597;6816;278064;-76
2023/07/12 06:53:57;;;;;;;7.45;4.90;;;28.80;50.90;;;;;;20599;6816;289593;-76
2023/07/12 06:56:23;;;;;;;6.00;4.70;;;28.80;50.90;;;;;;20799;6816;117272;-76
2023/07/12 06:58:48;;;;;;;5.40;4.90;;;28.70;52.10;;;;;;20583;6816;307955;-76
2023/07/12 07:01:14;;;;;;;4.70;4.27;;;29.00;51.30;;;;;;20802;6816;123116;-76
2023/07/12 07:03:40;;;;;;;5.00;4.60;;;29.80;50.40;;;;;;20575;6816;314031;-76
2023/07/12 07:06:06;;;;;;;5.60;5.00;;;29.80;50.40;;;;;;20559;6816;277989;-76
2023/07/12 07:08:31;;;;;;;6.20;4.67;;;30.50;48.80;;;;;;20757;6816;121392;-75
2023/07/12 07:10:57;;;;;;;5.62;5.10;;;30.60;49.50;;;;;;20589;6816;299718;-74
2023/07/12 07:13:23;;;;;;;5.80;5.10;;;30.80;47.30;;;;;;20807;6816;117867;-75
2023/07/12 07:15:49;;;;;;;5.10;4.60;;;30.20;49.30;;;;;;20792;6816;116937;-75
2023/07/12 07:18:15;;;;;;;4.80;4.50;;;30.20;49.30;;;;;;20802;6816;117366;-74
2023/07/12 07:20:40;;;;;;;7.17;5.00;;;29.90;50.10;;;;;;20785;6816;117513;-74
2023/07/12 07:23:05;;;;;;;6.07;5.32;;;29.70;50.50;;;;;;20596;6816;315293;-75
2023/07/12 07:25:31;;;;;;;5.93;5.32;;;30.00;49.10;;;;;;20603;6816;278395;-74
2023/07/12 07:27:57;;;;;;;5.63;5.23;;;30.40;49.40;;;;;;20805;6816;117295;-74
2023/07/12 07:30:23;;;;;;;6.47;5.13;;;30.40;49.40;;;;;;20593;6816;307503;-74
2023/07/12 07:32:49;;;;;;;6.33;5.47;;;30.50;47.90;;;;;;20574;6816;306537;-74
2023/07/12 07:35:14;;;;;;;5.60;5.18;;;30.70;47.40;;;;;;20802;6816;117064;-75
2023/07/12 07:37:40;;;;;;;5.30;4.80;;;30.50;48.50;;;;;;20811;6816;117530;-74
2023/07/12 07:40:07;;;;;;;6.50;5.13;;;30.20;49.60;;;;;;20800;6814;117288;-74
2023/07/12 07:42:31;;;;;;;5.93;5.33;;;29.90;50.30;;;;;;20579;6815;307011;-75
2023/07/12 07:44:57;;;;;;;5.67;5.27;;;30.10;48.90;;;;;;20824;6815;117084;-74
2023/07/12 07:47:22;;;;;;;5.93;5.32;;;30.10;49.90;;;;;;20615;6815;277688;-74
2023/07/12 07:49:48;;;;;;;5.87;5.37;;;30.20;48.10;;;;;;20602;6815;310215;-74
2023/07/12 07:52:14;;;;;;;6.10;5.27;;;30.40;48.60;;;;;;20808;6816;116831;-74
2023/07/12 07:54:43;;;;;;;6.57;5.77;;;30.50;49.10;;;;;;20572;6816;307006;-74
2023/07/12 07:57:08;;;;;;;5.70;5.20;;;30.60;48.40;;;;;;20807;6816;117176;-74
2023/07/12 07:59:35;;;;;;;5.57;5.12;;;30.50;49.20;;;;;;20589;6816;297352;-74
2023/07/12 08:02:03;;;;;;;5.13;4.63;;;30.70;48.70;;;;;;20806;6816;116909;-74
2023/07/12 08:04:32;;;;;;;5.53;5.03;;;30.50;49.50;;;;;;20803;6816;117477;-75
2023/07/12 08:06:58;;;;;;;5.50;5.00;;;30.50;49.50;;;;;;20504;6837;337138;-74
2023/07/12 08:09:23;;;;;;;5.83;4.60;;;30.80;46.60;;;;;;20515;6843;277293;-74
2023/07/12 08:11:49;;;;;;;5.57;5.03;;;31.20;45.70;;;;;;20538;6834;306663;-75
2023/07/12 08:14:14;;;;;;;6.00;5.03;;;31.40;44.60;;;;;;20579;6819;307438;-75
2023/07/12 08:16:41;;;;;;;5.77;4.40;;;31.70;44.50;;;;;;20784;6819;117565;-75
2023/07/12 08:19:06;;;;;;;5.87;4.20;;;31.50;42.70;;;;;;20513;6826;306302;-75
2023/07/12 08:21:32;;;;;;;4.40;3.87;;;31.50;42.60;;;;;;20695;6849;123139;-75
2023/07/12 08:23:57;;;;;;;4.60;4.20;;;31.30;44.40;;;;;;20569;6817;306991;-74
2023/07/12 08:26:23;;;;;;;4.72;4.00;;;31.40;42.80;;;;;;20709;6831;117263;-74
2023/07/12 08:28:49;;;;;;;4.75;3.97;;;31.60;41.60;;;;;;20500;6831;309974;-74
2023/07/12 08:31:15;;;;;;;4.35;3.80;;;31.60;41.60;;;;;;20574;6822;278359;-74
2023/07/12 08:33:41;;;;;;;3.60;3.30;;;31.90;41.10;;;;;;20676;6846;117397;-74
2023/07/12 08:36:06;;;;;;;4.10;3.80;;;31.90;42.10;;;;;;20654;6863;117729;-74
2023/07/12 08:38:32;;;;;;;6.50;3.70;;;31.70;42.90;;;;;;20654;6854;127247;-75
2023/07/12 08:40:59;;;;;;;5.55;3.62;;;31.40;42.90;;;;;;20460;6859;310619;-74
2023/07/12 08:43:24;;;;;;;3.90;3.60;;;31.60;41.30;;;;;;20422;6871;279208;-74
2023/07/12 08:45:51;;;;;;;4.10;3.80;;;31.90;39.60;;;;;;20474;6843;307813;-74
2023/07/12 08:48:16;;;;;;;5.10;3.77;;;32.10;39.90;;;;;;20734;6831;117043;-74
2023/07/12 08:50:46;;;;;;;4.03;3.73;;;32.10;40.80;;;;;;20470;6846;278292;-74
2023/07/12 08:53:12;;;;;;;4.00;3.70;;;32.00;40.10;;;;;;20545;6831;339197;-74
2023/07/12 08:55:37;;;;;;;4.10;3.47;;;32.20;39.40;;;;;;20536;6832;277710;-74
2023/07/12 08:58:13;;;;;;;4.77;3.73;;;32.50;39.10;;;;;;20547;6832;279654;-75
2023/07/12 09:00:39;;;;;;;4.00;3.60;;;32.60;38.90;;;;;;20500;6832;289687;-74
2023/07/12 09:03:04;;;;;;;4.13;3.40;;;32.70;37.90;;;;;;20753;6832;117633;-71
2023/07/12 09:05:30;;;;;;;4.40;3.50;;;32.50;39.70;;;;;;20539;6832;310637;-73
2023/07/12 09:08:04;;;;;;;4.35;3.65;;;32.60;39.00;;;;;;20542;6832;278073;-75
2023/07/12 09:10:39;;;;;;;4.57;3.60;;;32.90;38.80;;;;;;20703;6832;117624;-74
2023/07/12 09:13:04;;;;;;;5.78;3.60;;;32.80;39.70;;;;;;20530;6832;278164;-74
2023/07/12 09:15:33;;;;;;;4.00;3.60;;;32.90;38.80;;;;;;20551;6832;277288;-72
2023/07/12 09:17:59;;;;;;;4.60;4.23;;;33.20;38.50;;;;;;20746;6832;117942;-72
2023/07/12 09:20:24;;;;;;;4.03;3.70;;;33.00;39.90;;;;;;20760;6832;118244;-72
2023/07/12 09:22:50;;;;;;;5.73;3.87;;;32.80;40.80;;;;;;20534;6832;308999;-73
2023/07/12 09:25:26;;;;;;;4.57;4.17;;;32.90;40.40;;;;;;20555;6832;308527;-72
2023/07/12 09:27:51;;;;;;;4.37;3.43;;;33.30;38.90;;;;;;20733;6832;117502;-72
2023/07/12 09:30:22;;;;;;;3.53;3.27;;;33.30;39.80;;;;;;20756;6832;117067;-72
2023/07/12 09:32:49;;;;;;;5.20;3.53;;;33.10;37.30;;;;;;20487;6832;279176;-71
2023/07/12 09:35:23;;;;;;;4.10;3.30;;;33.10;37.30;;;;;;20538;6832;311437;-72
2023/07/12 09:37:48;;;;;;;4.10;3.70;;;33.30;36.80;;;;;;20539;6832;278092;-71
2023/07/12 09:40:14;;;;;;;5.20;3.60;;;33.50;37.10;;;;;;20517;6832;312325;-72
2023/07/12 09:42:40;;;;;;;3.50;3.20;;;33.70;36.00;;;;;;20723;6832;125047;-72
2023/07/12 09:45:06;;;;;;;4.40;3.65;;;33.40;37.50;;;;;;20548;6832;277687;-73
2023/07/12 09:48:00;;;;;;;4.17;3.50;;;33.30;37.70;;;;;;20730;6832;117398;-72
2023/07/12 09:50:24;;;;;;;3.53;3.23;;;33.30;37.70;;;;;;19710;7180;69240;-72
2023/07/12 09:52:53;;;;;;;3.27;3.07;;;33.00;38.90;;;;;;20282;6832;119092;-72
2023/07/12 09:55:43;;;;;;;3.90;3.70;;;32.80;38.80;;;;;;20738;6832;117073;-72
2023/07/12 09:58:24;;;;;;;5.53;3.53;;;32.60;39.60;;;;;;20537;6832;279210;-71
2023/07/12 10:00:53;;;;;;;4.93;3.70;;;32.80;37.50;;;;;;20509;6832;311997;-72
2023/07/12 10:03:21;;;;;;;6.00;3.80;;;33.20;36.90;;;;;;20539;6831;307609;-72
2023/07/12 10:05:47;;;;;;;4.00;3.60;;;33.40;36.00;;;;;;20537;6832;280357;-73
2023/07/12 10:08:12;;;;;;;3.87;3.57;;;33.70;35.70;;;;;;20749;6832;118052;-71
2023/07/12 10:10:51;;;;;;;4.43;3.37;;;33.40;37.20;;;;;;20736;6832;117239;-75
2023/07/12 10:13:46;;;;;;;5.55;3.60;;;33.20;38.00;;;;;;20559;6832;307063;-77
2023/07/12 10:16:15;;;;;;;4.37;3.50;;;33.30;36.00;;;;;;20545;6832;308087;-72
2023/07/12 10:18:41;;;;;;;3.60;3.40;;;33.70;36.00;;;;;;20707;6832;126865;-74
2023/07/12 10:21:06;;;;;;;3.70;3.40;;;33.60;37.20;;;;;;20760;6832;117228;-73
2023/07/12 10:23:32;;;;;;;4.30;3.25;;;33.40;37.60;;;;;;20762;6832;118215;-73
2023/07/12 10:25:58;;;;;;;4.17;3.80;;;33.30;38.20;;;;;;20525;6832;306876;-71
2023/07/12 10:28:39;;;;;;;4.03;3.30;;;33.40;35.20;;;;;;20537;6832;307566;-73
2023/07/12 10:31:05;;;;;;;4.13;3.50;;;33.60;35.40;;;;;;19918;6832;293519;-72
2023/07/12 10:33:30;;;;;;;3.90;3.60;;;33.80;34.80;;;;;;20515;6832;278533;-72
2023/07/12 10:35:56;;;;;;;4.30;3.60;;;34.00;34.00;;;;;;20518;6832;312416;-73
2023/07/12 10:38:22;;;;;;;4.18;3.50;;;34.10;34.20;;;;;;20534;6832;336662;-74
2023/07/12 10:40:57;;;;;;;3.50;3.20;;;34.30;34.10;;;;;;20521;6832;303252;-74
2023/07/12 10:43:29;;;;;;;4.80;3.03;;;34.40;33.60;;;;;;20736;6832;117126;-72
2023/07/12 10:45:54;;;;;;;3.63;3.00;;;34.10;34.90;;;;;;20744;6832;117089;-72
2023/07/12 10:48:20;;;;;;;4.03;3.63;;;33.70;37.10;;;;;;20746;6832;117569;-73
2023/07/12 10:50:47;;;;;;;3.50;3.20;;;33.70;37.00;;;;;;20731;6832;117509;-74
2023/07/12 10:53:20;;;;;;;3.97;3.33;;;33.40;37.20;;;;;;20535;6832;281054;-72
2023/07/12 10:55:44;;;;;;;6.30;3.87;;;33.50;35.20;;;;;;20506;6832;296728;-71
2023/07/12 10:58:26;;;;;;;5.70;3.43;;;33.70;34.40;;;;;;20750;6832;117139;-72
2023/07/12 11:00:53;;;;;;;4.50;3.70;;;33.60;35.80;;;;;;20476;6837;278694;-73
2023/07/12 11:03:18;;;;;;;4.30;3.90;;;33.70;34.00;;;;;;20513;6837;278224;-73
2023/07/12 11:05:57;;;;;;;3.60;3.40;;;33.90;34.20;;;;;;20735;6837;117246;-76
2023/07/12 11:08:32;;;;;;;4.07;3.47;;;33.90;35.30;;;;;;20520;6837;288038;-73
2023/07/12 11:11:08;;;;;;;4.20;3.80;;;34.00;34.30;;;;;;20528;6837;306813;-73
2023/07/12 11:13:33;;;;;;;3.43;3.23;;;34.30;34.30;;;;;;20690;6837;118268;-74
2023/07/12 11:16:06;;;;;;;4.10;3.70;;;34.30;34.10;;;;;;20535;6835;307980;-73
2023/07/12 11:18:33;;;;;;;3.77;3.43;;;34.20;34.00;;;;;;20580;6836;117361;-72
2023/07/12 11:21:02;;;;;;;3.83;3.53;;;34.20;35.20;;;;;;20728;6837;123517;-71
2023/07/12 11:23:41;;;;;;;4.00;3.57;;;34.00;35.70;;;;;;20523;6837;307705;-73
2023/07/12 11:26:03;;;;;;;5.03;3.60;;;34.20;34.60;;;;;;20715;6837;117038;-71
2023/07/12 11:28:29;;;;;;;3.80;3.60;;;34.30;35.60;;;;;;20728;6837;117886;-76
2023/07/12 11:31:11;;;;;;;3.50;3.23;;;34.10;35.80;;;;;;20638;6837;118293;-77
2023/07/12 11:33:36;;;;;;;4.40;4.00;;;33.80;35.10;;;;;;20530;6837;277893;-72
2023/07/12 11:36:09;;;;;;;4.30;4.00;;;33.80;34.40;;;;;;20528;6837;307188;-75
2023/07/12 11:38:34;;;;;;;5.17;3.50;;;34.00;34.30;;;;;;20710;6837;117482;-74
2023/07/12 11:41:07;;;;;;;4.65;4.30;;;33.90;35.30;;;;;;20529;6837;300544;-75
2023/07/12 11:43:34;;;;;;;4.33;3.93;;;34.00;33.80;;;;;;20495;6837;302563;-76
2023/07/12 11:45:58;;;;;;;5.20;4.10;;;34.20;33.60;;;;;;20510;6837;281760;-76
2023/07/12 11:48:25;;;;;;;6.80;4.33;;;34.50;33.40;;;;;;20534;6837;277847;-77
2023/07/12 11:50:50;;;;;;;4.30;4.00;;;34.70;33.60;;;;;;20679;6835;119624;-74
2023/07/12 11:53:16;;;;;;;4.83;4.10;;;34.50;34.40;;;;;;20742;6835;123133;-73
2023/07/12 11:55:44;;;;;;;4.50;4.10;;;34.00;35.60;;;;;;20750;6831;117738;-81
2023/07/12 11:58:17;;;;;;;5.03;4.60;;;34.20;34.50;;;;;;20527;6831;309566;-81
2023/07/12 12:00:42;;;;;;;5.03;4.67;;;34.20;33.90;;;;;;20720;6831;117285;-73
2023/07/12 12:03:08;;;;;;;4.73;4.30;;;34.20;34.60;;;;;;20755;6831;117908;-73
2023/07/12 12:05:38;;;;;;;4.90;4.50;;;34.10;35.50;;;;;;20755;6831;119718;-81
2023/07/12 12:08:03;;;;;;;4.60;4.20;;;34.10;36.00;;;;;;20767;6831;118098;-76
2023/07/12 12:10:35;;;;;;;5.13;4.63;;;34.00;35.70;;;;;;20765;6831;117204;-74
2023/07/12 12:13:00;;;;;;;5.62;4.53;;;33.80;34.90;;;;;;20552;6831;337227;-71
2023/07/12 12:15:27;;;;;;;4.63;4.30;;;34.40;32.90;;;;;;20554;6831;277840;-75
2023/07/12 12:17:53;;;;;;;4.80;4.37;;;34.50;33.70;;;;;;20775;6831;117463;-75
2023/07/12 12:20:22;;;;;;;5.20;4.80;;;34.60;33.90;;;;;;20599;6831;301255;-75
2023/07/12 12:22:53;;;;;;;4.57;4.37;;;34.70;33.00;;;;;;20696;6831;116488;-74
2023/07/12 12:25:22;;;;;;;4.97;4.60;;;34.60;33.70;;;;;;20777;6831;117255;-75
2023/07/12 12:27:49;;;;;;;6.90;4.77;;;34.40;33.70;;;;;;20761;6829;117131;-75
2023/07/12 12:30:15;;;;;;;4.67;4.37;;;34.10;33.40;;;;;;20552;6830;307265;-77
2023/07/12 12:32:40;;;;;;;4.90;4.50;;;34.10;33.00;;;;;;20546;6830;287383;-74
2023/07/12 12:35:06;;;;;;;5.82;4.03;;;34.30;32.80;;;;;;20771;6830;117420;-77